Miami International Airport
KMIA : rendu visible

Aérodrome :











RETROUVEZ-NOUS SUR...

 
LOGIN :

S'inscrire | Disclaimer

   EN    FR    IT 

 









Légende :    VFR   VFR Marginal   IFR   IFR Intensif   IFR Très Intensif
Visi : 
Plafond : 
>= 8 km
>= 3000ft
5 à 8 km
1000 à 3000 ft
1500m à 5 km
500 à 1000 ft
800 à 1500m
200 à 500 ft
< 800m
< 200 ft
Symboles :   Orages  Brouillard  Fortes neiges  Fortes précipitations  Vent > 20 kt






- Altitude de l'aérodrome : 8 ft
- Code IATA : MIA


KMIA - Miami International

DERNIER METAR :
  • 290853Z 11009KT 10SM FEW021 24/20 A3006 RMK AO2 SLP181 T02440200 55003 $

METARs EXPIRÉS :
  • 290753Z 10012KT 10SM FEW020 SCT026 24/21 A3005 RMK AO2 SLP176 T02440206 $
  • 290653Z 11009KT 10SM SCT020 SCT026 25/21 A3006 RMK AO2 SLP178 T02500211 $

TAF KMIA
Valide du 29 à 09h jusqu'au 30 à 12h UTC


290853Z 2909/3012 11006KT P6SM SCT020
TEMPO 2909/2912 6SM BR BCFG BKN020
FM291400 14012KT P6SM SCT025 SCT035
FM300200 12007KT P6SM SCT030



MET'MAP, la Météo Aéronautique d'un coup d'oeil ! - Copyright ORBIFLY Décembre 2007 - Disclaimer

ORBIFLY MET'MAP TEAM :

Programmation & Développement : Alexandra Zaïnal
Sur une idée originale de : Baudouin d'Aumeries
Assistance à la programmation : Marc-Olivier Méhu
Soutien technique & logistique : Manuel Goepfert

Contact : metmap@orbifly.com




SOURCES & CREDITS :

   NOAA       Earth
Advisory